Time;durP1;ratioP1;P1;durP2;ratioP2;P2;SDS_P1;SDS_P2;PMS_P1;PMS_P2;Temp;Humidity;BMP_temperature;BMP_pressure;BME280_temperature;BME280_humidity;BME280_pressure;Samples;Min_cycle;Max_cycle;Signal;HPM_P1;HPM_P2
2022/07/18 00:02:20;;;;;;;;;2.00;2.00;;;;;17.32;47.23;100407.72;6307315;20;2624216;-54
2022/07/18 00:04:48;;;;;;;;;2.00;2.00;;;;;17.04;48.23;100405.44;6319386;20;2744124;-51
2022/07/18 00:07:16;;;;;;;;;3.00;3.00;;;;;17.45;47.08;100412.19;6284074;20;2727449;-54
2022/07/18 00:09:44;;;;;;;;;2.00;2.00;;;;;16.77;49.06;100409.28;6286846;20;2740907;-49
2022/07/18 00:12:12;;;;;;;;;2.50;2.50;;;;;16.80;49.52;100419.03;6288569;20;2728416;-54
2022/07/18 00:14:40;;;;;;;;;2.00;2.00;;;;;16.72;49.61;100422.28;6288300;20;2733755;-54
2022/07/18 00:17:08;;;;;;;;;5.50;3.00;;;;;16.93;49.17;100425.25;6285645;20;2750463;-58
2022/07/18 00:19:37;;;;;;;;;2.00;2.00;;;;;16.75;49.98;100427.47;6287360;20;2747289;-58
2022/07/18 00:22:06;;;;;;;;;2.50;2.50;;;;;16.50;50.51;100427.56;6287342;20;2735761;-57
2022/07/18 00:24:34;;;;;;;;;2.00;2.00;;;;;16.11;51.94;100426.81;6287862;20;2739920;-58
2022/07/18 00:27:02;;;;;;;;;2.00;2.00;;;;;16.36;51.26;100425.88;6287730;20;2744030;-58
2022/07/18 00:29:31;;;;;;;;;3.00;3.00;;;;;16.44;51.24;100427.03;6303009;20;1806621;-58
2022/07/18 00:31:59;;;;;;;;;3.00;3.00;;;;;15.93;53.06;100423.59;6318307;20;2744039;-58
2022/07/18 00:34:27;;;;;;;;;2.00;1.00;;;;;15.99;53.02;100432.16;6287695;20;2727337;-58
2022/07/18 00:36:54;;;;;;;;;3.00;3.00;;;;;15.77;53.99;100418.41;6282098;20;2753414;-58
2022/07/18 00:39:22;;;;;;;;;2.50;2.50;;;;;15.80;53.47;100418.22;6287304;20;2739947;-57
2022/07/18 00:41:51;;;;;;;;;3.00;3.00;;;;;15.82;53.59;100410.81;6286412;20;2740038;-54
2022/07/18 00:44:28;;;;;;;;;3.00;3.00;;;;;15.91;53.86;100410.16;6287972;20;2737820;-54
2022/07/18 00:47:00;;;;;;;;;4.00;2.00;;;;;15.99;53.53;100418.59;6284693;20;2751318;-55
2022/07/18 00:49:30;;;;;;;;;3.00;3.00;;;;;15.89;53.76;100412.13;6287670;20;2727380;-55
2022/07/18 00:51:58;;;;;;;;;2.00;2.00;;;;;15.77;53.97;100422.00;6287836;20;2730493;-54
2022/07/18 00:54:25;;;;;;;;;4.00;3.00;;;;;16.18;53.14;100426.25;6286834;20;2732579;-52
2022/07/18 00:56:54;;;;;;;;;5.00;3.00;;;;;15.85;54.15;100421.47;6284177;20;2754518;-53
2022/07/18 00:59:22;;;;;;;;;3.00;3.00;;;;;15.77;54.24;100418.41;6286767;20;2744434;-53
2022/07/18 01:01:49;;;;;;;;;3.00;3.00;;;;;15.91;54.07;100414.72;6283435;20;2741947;-53
2022/07/18 01:04:23;;;;;;;;;2.50;2.50;;;;;15.76;54.87;100417.53;6299353;20;1798370;-53
2022/07/18 01:06:52;;;;;;;;;3.00;3.00;;;;;15.47;55.62;100422.28;6315831;20;2743091;-52
2022/07/18 01:09:20;;;;;;;;;4.00;4.00;;;;;15.24;56.85;100425.72;6283517;20;2752482;-53
2022/07/18 01:11:48;;;;;;;;;2.00;2.00;;;;;15.61;55.59;100428.56;6290737;20;2723197;-53
2022/07/18 01:14:17;;;;;;;;;4.00;3.00;;;;;15.81;55.15;100425.34;6285514;20;2744092;-55
2022/07/18 01:16:45;;;;;;;;;4.00;4.00;;;;;15.85;54.67;100420.56;6281035;20;2756911;-53
2022/07/18 01:19:12;;;;;;;;;5.00;3.00;;;;;15.58;55.81;100425.09;6287226;20;2751316;-54
2022/07/18 01:21:40;;;;;;;;;3.00;3.00;;;;;15.57;55.79;100425.22;6284630;20;2750291;-54
2022/07/18 01:24:08;;;;;;;;;3.00;3.00;;;;;15.41;56.81;100421.88;6283746;20;2744087;-52
2022/07/18 01:26:36;;;;;;;;;3.00;3.00;;;;;15.63;56.48;100419.34;6282154;20;2737761;-55
2022/07/18 01:29:05;;;;;;;;;10.33;10.33;;;;;15.27;57.51;100430.91;6279553;20;3516026;-55
2022/07/18 01:31:33;;;;;;;;;3.00;3.00;;;;;15.53;56.80;100427.28;6316293;20;2752321;-52
2022/07/18 01:34:02;;;;;;;;;3.00;3.00;;;;;15.75;56.04;100436.63;6286847;20;2739861;-53
2022/07/18 01:36:30;;;;;;;;;2.50;2.50;;;;;15.30;57.95;100430.72;6282600;20;2732605;-49
2022/07/18 01:38:59;;;;;;;;;4.00;4.00;;;;;15.54;57.02;100434.41;6285321;20;2753428;-46
2022/07/18 01:41:27;;;;;;;;;4.00;4.00;;;;;15.52;57.02;100436.38;6287436;20;2756492;-51
2022/07/18 01:43:54;;;;;;;;;4.50;4.00;;;;;15.46;57.49;100433.25;6284069;20;2750242;-55
2022/07/18 01:46:22;;;;;;;;;3.00;3.00;;;;;15.64;56.63;100431.94;6283974;20;2744004;-57
2022/07/18 01:48:50;;;;;;;;;5.00;3.00;;;;;15.33;57.94;100430.50;6285533;20;2739869;-56
2022/07/18 01:51:18;;;;;;;;;4.50;4.00;;;;;15.02;58.92;100442.56;6283064;20;2744115;-55
2022/07/18 01:54:01;;;;;;;;;4.50;3.50;;;;;14.94;59.33;100437.69;6280633;20;2754460;-55
2022/07/18 01:56:29;;;;;;;;;3.00;3.00;;;;;15.21;58.65;100437.63;6284784;20;2744217;-54
2022/07/18 01:58:57;;;;;;;;;5.00;5.00;;;;;14.96;59.03;100433.03;6284537;20;2745088;-53
2022/07/18 02:01:24;;;;;;;;;3.00;2.00;;;;;15.07;59.35;100430.47;6284160;20;2742984;-52
2022/07/18 02:03:52;;;;;;;;;4.00;4.00;;;;;15.09;58.96;100436.66;6278169;20;2743387;-54
2022/07/18 02:06:20;;;;;;;;;5.00;4.00;;;;;15.45;57.92;100456.69;6278402;20;2753425;-52
2022/07/18 02:08:49;;;;;;;;;4.25;3.75;;;;;15.37;58.02;100448.25;6299060;20;1807727;-53
2022/07/18 02:11:16;;;;;;;;;4.50;4.50;;;;;15.28;58.47;100449.75;6314889;20;2744067;-54
2022/07/18 02:13:44;;;;;;;;;2.50;2.00;;;;;15.06;58.81;100461.19;6279148;20;2748195;-52
2022/07/18 02:16:12;;;;;;;;;3.00;3.00;;;;;15.10;59.28;100451.03;6281933;20;2737771;-56
2022/07/18 02:18:40;;;;;;;;;4.00;4.00;;;;;15.08;59.01;100453.81;6283965;20;2745080;-52
2022/07/18 02:21:10;;;;;;;;;4.00;4.00;;;;;15.08;58.97;100459.22;6282892;20;2753421;-51
2022/07/18 02:23:38;;;;;;;;;3.00;3.00;;;;;14.76;59.26;100464.09;6285245;20;2739909;-50
2022/07/18 02:26:07;;;;;;;;;4.00;4.00;;;;;14.90;59.67;100461.38;6280100;20;2754422;-53
2022/07/18 02:28:36;;;;;;;;;3.00;3.00;;;;;14.61;60.11;100463.31;6301737;20;1803131;-55
2022/07/18 02:31:06;;;;;;;;;4.00;4.00;;;;;15.01;59.37;100468.75;6316470;20;2754508;-53
2022/07/18 02:33:34;;;;;;;;;4.00;4.00;;;;;14.75;60.52;100464.22;6283582;20;2730515;-50
2022/07/18 02:36:02;;;;;;;;;3.00;3.00;;;;;15.20;58.83;100467.50;6280457;20;2740874;-52
2022/07/18 02:38:34;;;;;;;;;4.00;4.00;;;;;14.91;59.90;100468.50;6323341;20;3464097;-53
2022/07/18 02:41:02;;;;;;;;;5.00;4.00;;;;;14.59;61.34;100470.66;6314465;20;2740881;-54
2022/07/18 02:43:30;;;;;;;;;3.00;3.00;;;;;14.25;62.81;100470.09;6282740;20;2756547;-53
2022/07/18 02:45:58;;;;;;;;;5.00;4.00;;;;;14.33;61.78;100466.03;6280454;20;2748177;-50
2022/07/18 02:48:25;;;;;;;;;3.00;3.00;;;;;14.14;62.69;100472.63;6285060;20;2756538;-49
2022/07/18 02:50:53;;;;;;;;;4.00;4.00;;;;;14.17;62.07;100467.03;6287497;20;2738906;-53
2022/07/18 02:53:23;;;;;;;;;4.00;4.00;;;;;14.03;63.03;100462.50;6285041;20;2756670;-54
2022/07/18 02:55:51;;;;;;;;;5.00;5.00;;;;;14.05;62.49;100467.78;6286342;20;2747162;-50
2022/07/18 02:58:19;;;;;;;;;5.00;5.00;;;;;14.06;62.82;100453.34;6287625;20;2748304;-50
2022/07/18 03:00:47;;;;;;;;;4.00;4.00;;;;;13.92;63.13;100450.63;6287751;20;2744256;-53
2022/07/18 03:03:15;;;;;;;;;4.00;4.00;;;;;14.10;62.93;100459.41;6283736;20;2748174;-49
2022/07/18 03:05:43;;;;;;;;;6.00;5.00;;;;;14.23;62.84;100457.66;6288037;20;2743753;-53
2022/07/18 03:08:10;;;;;;;;;4.00;4.00;;;;;14.13;63.14;100456.50;6290126;20;2740902;-52
2022/07/18 03:10:38;;;;;;;;;5.00;3.50;;;;;14.10;63.21;100457.56;6286761;20;2747174;-50
2022/07/18 03:13:06;;;;;;;;;3.00;3.00;;;;;14.11;63.31;100453.91;6290871;20;2752597;-53
2022/07/18 03:15:34;;;;;;;;;5.00;5.00;;;;;13.93;64.12;100452.38;6285128;20;2747161;-50
2022/07/18 03:18:02;;;;;;;;;4.50;4.50;;;;;14.05;64.23;100452.47;6288577;20;2745036;-52
2022/07/18 03:20:30;;;;;;;;;5.00;4.00;;;;;13.99;64.20;100457.41;6285985;20;2751380;-51
2022/07/18 03:22:58;;;;;;;;;4.00;4.00;;;;;13.99;64.12;100452.84;6288392;20;2739199;-55
2022/07/18 03:25:26;;;;;;;;;5.50;5.00;;;;;14.30;63.21;100460.81;6286222;20;2747120;-51
2022/07/18 03:27:53;;;;;;;;;5.00;4.00;;;;;14.26;62.70;100460.16;6288861;20;2747122;-51
2022/07/18 03:30:21;;;;;;;;;5.00;5.00;;;;;14.37;63.23;100467.56;6285325;20;2734864;-52
2022/07/18 03:32:49;;;;;;;;;7.00;4.00;;;;;14.08;64.23;100467.59;6288843;20;2747248;-52
2022/07/18 03:35:20;;;;;;;;;7.43;4.71;;;;;14.30;63.93;100477.03;6330035;20;3453383;-51
2022/07/18 03:37:48;;;;;;;;;6.00;5.00;;;;;14.18;64.15;100474.16;6318748;20;2727429;-50
2022/07/18 03:40:16;;;;;;;;;8.50;5.00;;;;;14.40;63.89;100478.16;6287668;20;2736748;-52
2022/07/18 03:42:43;;;;;;;;;5.00;5.00;;;;;14.38;63.88;100482.81;6287246;20;2733597;-53
2022/07/18 03:45:11;;;;;;;;;4.00;4.00;;;;;14.55;63.11;100482.63;6287340;20;2745228;-53
2022/07/18 03:47:39;;;;;;;;;5.50;5.50;;;;;14.45;63.15;100484.13;6285169;20;2744093;-54
2022/07/18 03:50:08;;;;;;;;;5.00;5.00;;;;;14.40;63.91;100487.16;6287253;20;2745218;-55
2022/07/18 03:52:35;;;;;;;;;9.00;6.00;;;;;14.54;63.41;100486.28;6290870;20;2740903;-54
2022/07/18 03:55:04;;;;;;;;;7.00;6.00;;;;;14.97;62.52;100491.56;6287860;20;2739989;-50
2022/07/18 03:57:32;;;;;;;;;6.00;6.00;;;;;14.61;63.20;100495.75;6285519;20;2734678;-53
2022/07/18 04:00:00;;;;;;;;;7.00;6.00;;;;;14.80;63.12;100486.41;6285768;20;2742986;-52
2022/07/18 04:02:27;;;;;;;;;8.50;5.00;;;;;14.77;63.56;100497.41;6282818;20;2746223;-52
2022/07/18 04:04:55;;;;;;;;;6.00;6.00;;;;;14.71;63.80;100493.28;6285937;20;2748186;-52
2022/07/18 04:07:23;;;;;;;;;4.50;4.50;;;;;15.04;63.36;100495.59;6285500;20;2738905;-54
2022/07/18 04:09:50;;;;;;;;;5.00;4.00;;;;;15.02;63.24;100502.06;6288992;20;2742454;-54
2022/07/18 04:12:21;;;;;;;;;7.00;4.00;;;;;15.49;61.31;100489.84;6287385;20;2747122;-52
2022/07/18 04:14:48;;;;;;;;;4.50;4.50;;;;;15.64;60.63;100493.31;6285529;20;2748587;-53
2022/07/18 04:17:16;;;;;;;;;4.00;4.00;;;;;15.91;59.54;100495.97;6281681;20;2744050;-52
2022/07/18 04:19:44;;;;;;;;;6.00;3.00;;;;;15.85;59.40;100491.88;6288621;20;2752339;-51
2022/07/18 04:22:11;;;;;;;;;4.00;4.00;;;;;15.99;58.58;100499.00;6285820;20;2751349;-51
2022/07/18 04:24:39;;;;;;;;;5.00;5.00;;;;;15.99;58.77;100499.88;6289954;20;2744108;-52
2022/07/18 04:27:07;;;;;;;;;6.00;4.00;;;;;15.91;59.72;100502.25;6282181;20;2751296;-50
2022/07/18 04:29:36;;;;;;;;;5.00;3.00;;;;;15.88;59.45;100502.47;6284502;20;2755465;-54
2022/07/18 04:32:04;;;;;;;;;7.00;4.00;;;;;15.89;59.95;100501.50;6288313;20;2748159;-53
2022/07/18 04:34:33;;;;;;;;;7.00;4.00;;;;;16.36;58.22;100494.50;6286575;20;2744236;-52
2022/07/18 04:37:01;;;;;;;;;5.50;4.50;;;;;16.22;58.58;100495.50;6286907;20;2750287;-55
2022/07/18 04:39:30;;;;;;;;;6.25;5.00;;;;;16.54;57.76;100499.56;6309599;20;2043011;-50
2022/07/18 04:41:58;;;;;;;;;4.00;4.00;;;;;16.48;57.43;100495.44;6315852;20;2756528;-53
2022/07/18 04:44:29;;;;;;;;;5.00;3.43;;;;;16.57;57.98;100499.34;6324294;20;3460754;-51
2022/07/18 04:46:58;;;;;;;;;3.60;3.60;;;;;16.97;56.54;100491.84;6335914;20;2746080;-52
2022/07/18 04:49:26;;;;;;;;;4.00;4.00;;;;;17.07;56.71;100497.44;6318343;20;2745107;-49
2022/07/18 04:51:54;;;;;;;;;3.00;3.00;;;;;17.19;56.35;100493.78;6286627;20;2748280;-54
2022/07/18 04:54:22;;;;;;;;;3.00;3.00;;;;;17.19;56.31;100499.19;6287289;20;2744043;-55
2022/07/18 04:56:51;;;;;;;;;3.00;3.00;;;;;17.46;55.33;100498.09;6285895;20;2744048;-54
2022/07/18 04:59:19;;;;;;;;;3.50;3.50;;;;;17.51;55.21;100504.03;6282408;20;2741908;-55
2022/07/18 05:01:46;;;;;;;;;3.00;3.00;;;;;17.42;55.92;100504.72;6285397;20;2745190;-57
2022/07/18 05:04:14;;;;;;;;;4.00;4.00;;;;;17.78;54.84;100504.59;6285613;20;2743069;-58
2022/07/18 05:06:42;;;;;;;;;3.00;3.00;;;;;17.82;54.69;100507.94;6282989;20;2744592;-57
2022/07/18 05:09:10;;;;;;;;;4.00;4.00;;;;;18.13;54.10;100511.81;6285019;20;2741956;-57
2022/07/18 05:11:37;;;;;;;;;5.00;5.00;;;;;18.22;53.81;100515.66;6286483;20;2747154;-57
2022/07/18 05:14:05;;;;;;;;;4.50;4.00;;;;;18.21;53.19;100506.63;6281759;20;2750476;-58
2022/07/18 05:16:33;;;;;;;;;2.00;2.00;;;;;18.67;52.34;100509.31;6284071;20;2750294;-58
2022/07/18 05:19:01;;;;;;;;;3.00;3.00;;;;;19.09;51.77;100513.09;6288923;20;2744048;-58
2022/07/18 05:21:30;;;;;;;;;6.00;3.50;;;;;19.03;51.05;100524.47;6290620;20;2738888;-59
2022/07/18 05:24:00;;;;;;;;;2.60;2.60;;;;;19.27;49.79;100516.09;6309146;20;2739897;-57
2022/07/18 05:26:27;;;;;;;;;3.00;3.00;;;;;19.51;50.60;100522.19;6317735;20;2727363;-58
2022/07/18 05:29:03;;;;;;;;;5.50;2.50;;;;;19.79;48.68;100508.94;6283078;20;2737802;-59
2022/07/18 05:31:31;;;;;;;;;5.50;4.00;;;;;19.76;48.68;100505.63;6287209;20;2749250;-58
2022/07/18 05:33:59;;;;;;;;;3.50;3.50;;;;;19.90;48.22;100513.44;6287955;20;2746082;-58
2022/07/18 05:36:26;;;;;;;;;3.00;3.00;;;;;20.00;47.70;100513.50;6278900;20;2747163;-58
2022/07/18 05:38:54;;;;;;;;;2.50;2.50;;;;;20.23;47.39;100515.06;6289214;20;2724200;-58
2022/07/18 05:41:22;;;;;;;;;2.50;2.50;;;;;20.32;46.66;100508.78;6287927;20;2729560;-57
2022/07/18 05:43:49;;;;;;;;;2.00;2.00;;;;;20.26;47.39;100509.34;6290337;20;2728378;-58
2022/07/18 05:46:17;;;;;;;;;3.00;3.00;;;;;20.49;47.04;100509.16;6283773;20;2746089;-59
2022/07/18 05:48:47;;;;;;;;;5.40;3.00;;;;;20.86;45.83;100511.28;6308363;20;2753785;-57
2022/07/18 05:51:15;;;;;;;;;3.00;3.00;;;;;20.89;45.76;100516.47;6316337;20;2738786;-58
2022/07/18 05:53:43;;;;;;;;;3.00;3.00;;;;;20.82;45.42;100506.09;6286468;20;2738816;-57
2022/07/18 05:56:11;;;;;;;;;3.00;3.00;;;;;21.10;44.87;100506.28;6291835;20;2729475;-50
2022/07/18 05:58:39;;;;;;;;;3.67;3.00;;;;;21.12;45.46;100506.16;6290274;20;2752497;-51
2022/07/18 06:01:19;;;;;;;;;5.67;3.00;;;;;20.70;45.60;100501.78;6318541;20;2742960;-53
2022/07/18 06:03:49;;;;;;;;;3.00;3.00;;;;;21.46;44.78;100509.38;6315857;20;2731632;-57
2022/07/18 06:06:20;;;;;;;;;3.00;3.00;;;;;21.73;43.60;100510.50;6314316;20;2756545;-52
2022/07/18 06:08:49;;;;;;;;;2.00;2.00;;;;;21.76;43.28;100512.94;6314669;20;2742005;-54
2022/07/18 06:11:17;;;;;;;;;2.33;2.33;;;;;21.84;43.65;100524.00;6315973;20;2731518;-52
2022/07/18 06:13:46;;;;;;;;;2.00;2.00;;;;;22.06;43.18;100522.78;6315297;20;2732580;-54
2022/07/18 06:16:17;;;;;;;;;2.00;2.00;;;;;22.01;42.47;100520.50;6313811;20;2746099;-50
2022/07/18 06:18:46;;;;;;;;;2.00;2.00;;;;;21.96;42.87;100522.81;6313568;20;2751334;-54
2022/07/18 06:21:14;;;;;;;;;3.33;3.00;;;;;22.15;42.69;100519.16;6316817;20;2741915;-53
2022/07/18 06:23:44;;;;;;;;;2.00;2.00;;;;;22.35;42.12;100522.72;6346661;20;2746120;-54
2022/07/18 06:26:12;;;;;;;;;3.00;3.00;;;;;22.39;41.97;100526.88;6323637;20;2736892;-51
2022/07/18 06:28:41;;;;;;;;;5.00;3.00;;;;;22.84;41.03;100528.81;6325629;20;2733786;-51
2022/07/18 06:31:17;;;;;;;;;3.00;3.00;;;;;23.23;40.03;100523.13;6350605;20;2731520;-50
2022/07/18 06:33:45;;;;;;;;;0.00;0.00;;;;;23.31;39.28;100525.94;6327404;20;2728377;-52
2022/07/18 06:36:14;;;;;;;;;2.67;2.67;;;;;23.38;39.90;100529.78;6323823;20;2744015;-53
2022/07/18 06:38:44;;;;;;;;;1.20;1.20;;;;;23.60;39.12;100530.31;6350096;20;2741927;-55
2022/07/18 06:41:14;;;;;;;;;3.00;3.00;;;;;23.48;38.65;100526.94;6325283;20;2745185;-53
2022/07/18 06:43:43;;;;;;;;;6.20;4.00;;;;;23.92;38.03;100524.25;6348817;20;2753437;-55
2022/07/18 06:46:12;;;;;;;;;3.00;3.00;;;;;24.40;38.18;100533.81;6292657;20;2752483;-51
2022/07/18 06:48:42;;;;;;;;;4.00;2.40;;;;;24.50;37.08;100536.47;6347392;20;2751440;-58
2022/07/18 06:51:12;;;;;;;;;3.20;3.20;;;;;24.79;36.78;100540.72;6317164;20;2750319;-59
2022/07/18 06:53:41;;;;;;;;;4.80;3.00;;;;;25.12;36.46;100534.31;6349841;20;2739903;-60
2022/07/18 06:56:11;;;;;;;;;3.20;3.20;;;;;25.37;35.63;100532.47;6347288;20;2739862;-59
2022/07/18 06:58:39;;;;;;;;;3.33;2.67;;;;;25.50;35.66;100534.72;6296110;20;2748200;-59
2022/07/18 07:01:09;;;;;;;;;3.20;3.20;;;;;25.78;35.65;100539.91;6348223;20;2741074;-59
2022/07/18 07:03:38;;;;;;;;;1.20;1.20;;;;;26.12;34.49;100533.34;6317301;20;2739920;-59
2022/07/18 07:06:08;;;;;;;;;4.80;3.80;;;;;26.36;34.20;100533.31;6343469;20;2748430;-55
2022/07/18 07:08:37;;;;;;;;;3.00;3.00;;;;;26.21;34.17;100530.41;6318656;20;2744003;-60
2022/07/18 07:11:07;;;;;;;;;2.00;2.00;;;;;26.64;33.35;100530.13;6346828;20;2756524;-60
2022/07/18 07:13:37;;;;;;;;;2.00;2.00;;;;;26.53;32.48;100533.28;6312708;20;2738832;-59
2022/07/18 07:16:06;;;;;;;;;1.80;1.80;;;;;26.52;32.32;100523.31;6313546;20;2741948;-60
2022/07/18 07:18:36;;;;;;;;;3.00;3.00;;;;;26.99;32.58;100527.91;6313889;20;2736736;-61
2022/07/18 07:21:08;;;;;;;;;2.80;2.80;;;;;27.09;31.81;100523.00;6349203;20;2735664;-58
2022/07/18 07:23:37;;;;;;;;;2.00;2.00;;;;;26.21;32.53;100518.53;6346886;20;2744087;-60
2022/07/18 07:26:08;;;;;;;;;3.80;2.20;;;;;26.73;32.93;100517.22;6315535;20;2744087;-60
2022/07/18 07:28:38;;;;;;;;;2.40;2.40;;;;;26.95;31.98;100510.03;6315615;20;2739826;-60
2022/07/18 07:31:07;;;;;;;;;2.00;2.00;;;;;26.92;31.52;100516.75;6348386;20;2745168;-59
2022/07/18 07:33:37;;;;;;;;;3.00;3.00;;;;;27.54;30.62;100515.84;6314992;20;2730880;-59
2022/07/18 07:36:07;;;;;;;;;1.80;1.80;;;;;27.40;30.34;100513.88;6344519;20;2739841;-59
2022/07/18 07:38:37;;;;;;;;;3.40;2.60;;;;;27.38;30.92;100510.44;6341256;20;2754411;-60
2022/07/18 07:41:06;;;;;;;;;2.00;2.00;;;;;27.66;31.42;100508.00;6309125;20;2746088;-60
2022/07/18 07:43:38;;;;;;;;;4.20;3.00;;;;;27.99;31.25;100508.59;6310500;20;2729484;-60
2022/07/18 07:46:07;;;;;;;;;2.00;2.00;;;;;28.39;30.00;100500.91;6338636;20;2742990;-59
2022/07/18 07:48:38;;;;;;;;;1.80;1.20;;;;;28.37;29.43;100506.59;6309745;20;2728457;-60
2022/07/18 07:51:08;;;;;;;;;2.20;2.00;;;;;27.47;30.59;100503.84;6343565;20;2738845;-60
2022/07/18 07:53:37;;;;;;;;;2.60;2.60;;;;;27.03;31.04;100502.56;6309767;20;2746303;-60
2022/07/18 07:56:07;;;;;;;;;3.00;3.00;;;;;27.72;30.29;100510.00;6309895;20;2743995;-61
2022/07/18 07:58:36;;;;;;;;;3.60;2.00;;;;;27.58;29.76;100509.78;6309422;20;2726317;-59
2022/07/18 08:01:06;;;;;;;;;3.00;2.00;;;;;27.62;30.95;100509.41;6339768;20;2750301;-61
2022/07/18 08:03:36;;;;;;;;;2.40;2.40;;;;;27.92;30.00;100508.47;6307638;20;2731567;-61
2022/07/18 08:06:05;;;;;;;;;3.20;3.00;;;;;27.96;29.91;100515.34;6340685;20;2744152;-60
2022/07/18 08:08:35;;;;;;;;;2.00;2.00;;;;;27.91;29.66;100508.66;6308778;20;2739872;-61
2022/07/18 08:11:04;;;;;;;;;7.40;7.40;;;;;27.39;30.32;100507.53;6307007;20;2722150;-60
2022/07/18 08:13:34;;;;;;;;;0.60;0.60;;;;;26.93;30.96;100500.00;6341180;20;2726284;-59
2022/07/18 08:16:04;;;;;;;;;3.00;3.00;;;;;27.25;31.27;100505.53;6340554;20;2754540;-61
2022/07/18 08:18:35;;;;;;;;;3.00;3.00;;;;;26.82;31.16;100500.44;6332832;20;1790931;-61
2022/07/18 08:21:05;;;;;;;;;4.00;3.00;;;;;27.62;30.34;100502.00;6338493;20;2745530;-60
2022/07/18 08:23:35;;;;;;;;;5.80;4.00;;;;;27.68;30.25;100501.25;6300593;20;2752384;-60
2022/07/18 08:26:05;;;;;;;;;2.20;2.20;;;;;27.63;29.52;100500.09;6306541;20;2740943;-61
2022/07/18 08:28:35;;;;;;;;;2.80;2.80;;;;;28.27;29.61;100505.19;6307466;20;2724251;-60
2022/07/18 08:31:04;;;;;;;;;2.00;2.00;;;;;28.04;28.94;100505.25;6339891;20;2746207;-61
2022/07/18 08:33:34;;;;;;;;;1.20;1.20;;;;;27.92;29.21;100514.00;6308641;20;2733609;-61
2022/07/18 08:36:04;;;;;;;;;3.40;3.00;;;;;27.69;29.31;100497.44;6339706;20;2737929;-61
2022/07/18 08:38:33;;;;;;;;;1.60;1.60;;;;;27.97;28.87;100488.59;6338059;20;2729464;-61
2022/07/18 08:41:04;;;;;;;;;3.80;3.00;;;;;28.53;29.43;100501.97;6340044;20;2737811;-61
2022/07/18 08:43:34;;;;;;;;;3.20;2.00;;;;;27.97;28.57;100485.81;6307415;20;2729638;-59
2022/07/18 08:46:06;;;;;;;;;2.60;2.60;;;;;28.96;27.68;100491.88;6338466;20;2728435;-60
2022/07/18 08:48:37;;;;;;;;;2.40;1.20;;;;;29.12;27.83;100498.25;6340883;20;2737943;-59
2022/07/18 08:51:06;;;;;;;;;2.40;2.40;;;;;28.91;28.13;100499.03;6311019;20;2738785;-58
2022/07/18 08:53:37;;;;;;;;;5.80;5.80;;;;;28.97;27.77;100496.38;6309531;20;2745037;-59
2022/07/18 08:56:07;;;;;;;;;2.00;2.00;;;;;28.31;27.46;100507.38;6309999;20;2739827;-59
2022/07/18 08:58:37;;;;;;;;;2.20;1.60;;;;;27.93;28.31;100492.75;6312532;20;2737747;-59
2022/07/18 09:01:15;;;;;;;;;1.60;0.00;;;;;28.69;27.92;100506.44;6343951;20;2731522;-56
2022/07/18 09:04:14;;;;;;;;;3.00;3.00;;;;;28.90;27.16;100495.44;6343047;20;2738811;-53
2022/07/18 09:06:50;;;;;;;;;2.40;2.00;;;;;28.64;26.81;100499.56;6311361;20;2745099;-58
2022/07/18 09:09:20;;;;;;;;;2.40;2.40;;;;;27.71;27.11;100508.28;6312170;20;2724263;-56
2022/07/18 09:11:58;;;;;;;;;4.60;3.00;;;;;28.47;27.53;100494.47;6342543;20;2736703;-57
2022/07/18 09:14:38;;;;;;;;;3.00;3.00;;;;;28.41;27.81;100499.66;6310097;20;2742439;-57
2022/07/18 09:17:19;;;;;;;;;3.40;2.40;;;;;28.79;27.30;100504.22;6306941;20;2737740;-56
2022/07/18 09:20:08;;;;;;;;;3.00;3.00;;;;;28.80;27.36;100497.63;6343745;20;2727423;-55
2022/07/18 09:22:47;;;;;;;;;2.00;2.00;;;;;28.71;26.37;100494.13;6342773;20;2744118;-58
2022/07/18 09:25:21;;;;;;;;;2.00;2.00;;;;;28.36;26.37;100499.38;6309711;20;2733902;-59
2022/07/18 09:27:53;;;;;;;;;3.00;3.00;;;;;29.18;26.27;100503.03;6339529;20;2719004;-60
2022/07/18 09:30:35;;;;;;;;;2.00;2.00;;;;;29.31;26.53;100498.47;6342354;20;2746104;-60
2022/07/18 09:33:10;;;;;;;;;1.80;1.80;;;;;29.24;26.96;100496.69;6312406;20;2746155;-60
2022/07/18 09:35:45;;;;;;;;;1.00;1.00;;;;;29.04;25.09;100486.28;6312697;20;2727368;-60
2022/07/18 09:38:21;;;;;;;;;3.50;2.75;;;;;29.00;25.91;100484.06;6341341;20;2632555;-60
2022/07/18 09:40:54;;;;;;;;;1.00;1.00;;;;;29.78;25.34;100487.00;6344822;20;2726330;-60
2022/07/18 09:43:26;;;;;;;;;1.00;1.00;;;;;30.17;24.87;100489.22;6340943;20;2744027;-60
2022/07/18 09:45:56;;;;;;;;;3.00;2.00;;;;;30.12;25.14;100489.84;6311153;20;2736736;-59
2022/07/18 09:48:27;;;;;;;;;1.60;1.60;;;;;30.11;25.18;100487.25;6307720;20;2744050;-59
2022/07/18 09:51:07;;;;;;;;;3.20;2.40;;;;;30.27;24.87;100481.41;6312368;20;2744007;-60
2022/07/18 09:53:43;;;;;;;;;1.40;1.40;;;;;30.32;24.42;100483.59;6311681;20;2750447;-60
2022/07/18 09:56:24;;;;;;;;;1.00;1.00;;;;;30.54;24.13;100476.88;6307641;20;2733647;-60
2022/07/18 09:58:56;;;;;;;;;1.00;1.00;;;;;30.49;23.90;100470.22;6307425;20;2731519;-59
2022/07/18 10:01:27;;;;;;;;;3.40;2.00;;;;;30.08;23.85;100471.06;6342630;20;2727821;-59
2022/07/18 10:03:59;;;;;;;;;4.00;2.60;;;;;29.40;25.30;100463.22;6344178;20;2738828;-60
2022/07/18 10:06:29;;;;;;;;;1.00;1.00;;;;;30.51;24.71;100468.13;6308517;20;2733614;-60
2022/07/18 10:08:59;;;;;;;;;1.60;1.60;;;;;29.48;25.54;100459.47;6308376;20;2741947;-59
2022/07/18 10:11:28;;;;;;;;;2.00;2.00;;;;;30.63;24.88;100464.56;6310856;20;2744031;-60
2022/07/18 10:13:59;;;;;;;;;2.00;2.00;;;;;30.34;25.07;100465.69;6308989;20;2744485;-59
2022/07/18 10:16:28;;;;;;;;;1.40;1.40;;;;;30.25;24.56;100466.06;6305005;20;2737868;-61
2022/07/18 10:18:59;;;;;;;;;0.40;0.40;;;;;30.46;23.38;100467.88;6310998;20;2722175;-60
2022/07/18 10:21:30;;;;;;;;;2.60;0.80;;;;;30.32;23.23;100462.28;6340161;20;2746104;-58
2022/07/18 10:24:02;;;;;;;;;0.00;0.00;;;;;30.51;23.67;100462.56;6308297;20;2717971;-58
2022/07/18 10:26:31;;;;;;;;;0.60;0.60;;;;;31.09;22.78;100457.47;6336449;20;2746111;-63
2022/07/18 10:29:01;;;;;;;;;1.80;1.80;;;;;30.75;22.74;100458.41;6308571;20;2748257;-58
2022/07/18 10:31:34;;;;;;;;;1.40;0.40;;;;;30.28;22.89;100455.44;6307650;20;2735663;-57
2022/07/18 10:34:08;;;;;;;;;1.40;1.40;;;;;31.39;22.23;100451.59;6307191;20;2744062;-59
2022/07/18 10:36:51;;;;;;;;;1.00;0.40;;;;;30.30;22.95;100442.22;6306996;20;2734622;-58
2022/07/18 10:39:39;;;;;;;;;3.00;1.40;;;;;30.93;22.83;100447.63;6308163;20;2755470;-58
2022/07/18 10:42:12;;;;;;;;;2.00;2.00;;;;;30.75;22.63;100450.94;6312170;20;2750720;-60
2022/07/18 10:44:42;;;;;;;;;2.00;2.00;;;;;30.54;23.55;100442.75;6309579;20;2752882;-60
2022/07/18 10:47:20;;;;;;;;;1.00;1.00;;;;;30.80;23.06;100439.22;6309946;20;2737865;-60
2022/07/18 10:49:52;;;;;;;;;1.00;1.00;;;;;30.82;23.30;100438.00;6311089;20;2729491;-60
2022/07/18 10:52:35;;;;;;;;;3.80;2.00;;;;;31.54;22.74;100441.13;6341054;20;2754418;-60
2022/07/18 10:57:55;;;;;;;;;2.80;2.80;;;;;30.54;22.77;100434.44;6337183;20;2736743;-60
2022/07/18 11:00:39;;;;;;;;;1.40;1.40;;;;;29.67;22.57;100424.72;6306426;20;2744050;-59
2022/07/18 11:03:11;;;;;;;;;1.00;1.00;;;;;30.27;21.70;100426.00;6307012;20;2728462;-60
2022/07/18 11:05:49;;;;;;;;;2.00;2.00;;;;;30.35;21.72;100427.75;6339860;20;2752318;-60
2022/07/18 11:08:24;;;;;;;;;3.00;1.40;;;;;30.67;22.25;100425.31;6307577;20;2746167;-60
2022/07/18 11:10:54;;;;;;;;;0.80;0.80;;;;;31.08;22.10;100421.63;6315401;20;2739886;-60
2022/07/18 11:13:31;;;;;;;;;1.40;1.40;;;;;31.13;21.86;100422.72;6314331;20;2739862;-60
2022/07/18 11:16:12;;;;;;;;;0.20;0.20;;;;;31.28;21.31;100415.03;6311960;20;2735676;-60
2022/07/18 11:18:42;;;;;;;;;3.00;2.00;;;;;30.33;21.64;100402.16;6316363;20;2734694;-59
2022/07/18 11:21:25;;;;;;;;;3.00;2.00;;;;;31.21;21.62;100408.63;6315111;20;2744664;-61
2022/07/18 11:24:11;;;;;;;;;2.33;1.33;;;;;31.60;21.64;100401.41;6290252;20;2754530;-60
2022/07/18 11:26:47;;;;;;;;;3.60;1.00;;;;;30.38;21.49;100394.94;6342422;20;2726393;-61